sensor_id;sensor_type;location;lat;lon;timestamp;P1;durP1;ratioP1;P2;durP2;ratioP2
25657;SDS011;13517;59.320;18.042;2022-09-01T00:00:37;2.30;;;1.10;;
25657;SDS011;13517;59.320;18.042;2022-09-01T00:03:06;1.33;;;1.02;;
25657;SDS011;13517;59.320;18.042;2022-09-01T00:05:34;4.72;;;1.20;;
25657;SDS011;13517;59.320;18.042;2022-09-01T00:08:00;3.08;;;1.10;;
25657;SDS011;13517;59.320;18.042;2022-09-01T00:10:25;1.00;;;0.80;;
25657;SDS011;13517;59.320;18.042;2022-09-01T00:12:51;3.10;;;1.10;;
25657;SDS011;13517;59.320;18.042;2022-09-01T00:15:16;8.30;;;1.20;;
25657;SDS011;13517;59.320;18.042;2022-09-01T00:17:42;1.83;;;1.20;;
25657;SDS011;13517;59.320;18.042;2022-09-01T00:20:07;1.92;;;1.00;;
25657;SDS011;13517;59.320;18.042;2022-09-01T00:22:34;2.08;;;1.27;;
25657;SDS011;13517;59.320;18.042;2022-09-01T00:24:59;1.58;;;1.30;;
25657;SDS011;13517;59.320;18.042;2022-09-01T00:27:26;5.57;;;1.10;;
25657;SDS011;13517;59.320;18.042;2022-09-01T00:29:51;4.18;;;1.48;;
25657;SDS011;13517;59.320;18.042;2022-09-01T00:32:17;1.13;;;1.00;;
25657;SDS011;13517;59.320;18.042;2022-09-01T00:34:42;2.97;;;1.40;;
25657;SDS011;13517;59.320;18.042;2022-09-01T00:37:08;1.88;;;1.10;;
25657;SDS011;13517;59.320;18.042;2022-09-01T00:39:33;4.30;;;1.30;;
25657;SDS011;13517;59.320;18.042;2022-09-01T00:41:59;4.50;;;1.40;;
25657;SDS011;13517;59.320;18.042;2022-09-01T00:44:25;1.48;;;1.10;;
25657;SDS011;13517;59.320;18.042;2022-09-01T00:46:52;2.63;;;1.35;;
25657;SDS011;13517;59.320;18.042;2022-09-01T00:51:48;2.80;;;1.20;;
25657;SDS011;13517;59.320;18.042;2022-09-01T00:54:18;2.88;;;1.35;;
25657;SDS011;13517;59.320;18.042;2022-09-01T00:56:47;2.78;;;1.23;;
25657;SDS011;13517;59.320;18.042;2022-09-01T00:59:13;3.60;;;1.50;;
25657;SDS011;13517;59.320;18.042;2022-09-01T01:01:42;2.42;;;1.25;;
25657;SDS011;13517;59.320;18.042;2022-09-01T01:04:08;4.82;;;1.50;;
25657;SDS011;13517;59.320;18.042;2022-09-01T01:06:59;1.55;;;1.20;;
25657;SDS011;13517;59.320;18.042;2022-09-01T01:09:29;2.75;;;1.50;;
25657;SDS011;13517;59.320;18.042;2022-09-01T01:11:58;2.50;;;1.40;;
25657;SDS011;13517;59.320;18.042;2022-09-01T01:14:26;6.03;;;1.90;;
25657;SDS011;13517;59.320;18.042;2022-09-01T01:16:56;3.58;;;1.50;;
25657;SDS011;13517;59.320;18.042;2022-09-01T01:19:24;2.72;;;1.50;;
25657;SDS011;13517;59.320;18.042;2022-09-01T01:22:36;3.00;;;1.70;;
25657;SDS011;13517;59.320;18.042;2022-09-01T01:25:37;3.55;;;1.48;;
25657;SDS011;13517;59.320;18.042;2022-09-01T01:30:40;4.35;;;1.55;;
25657;SDS011;13517;59.320;18.042;2022-09-01T01:33:08;3.20;;;1.38;;
25657;SDS011;13517;59.320;18.042;2022-09-01T01:35:34;5.43;;;2.17;;
25657;SDS011;13517;59.320;18.042;2022-09-01T01:38:02;5.07;;;1.70;;
25657;SDS011;13517;59.320;18.042;2022-09-01T01:40:31;2.97;;;1.40;;
25657;SDS011;13517;59.320;18.042;2022-09-01T01:42:57;3.38;;;1.83;;
25657;SDS011;13517;59.320;18.042;2022-09-01T01:45:25;3.67;;;1.80;;
25657;SDS011;13517;59.320;18.042;2022-09-01T01:47:51;2.92;;;1.85;;
25657;SDS011;13517;59.320;18.042;2022-09-01T01:50:21;6.25;;;1.70;;
25657;SDS011;13517;59.320;18.042;2022-09-01T01:52:51;2.22;;;1.42;;
25657;SDS011;13517;59.320;18.042;2022-09-01T01:55:18;2.67;;;1.58;;
25657;SDS011;13517;59.320;18.042;2022-09-01T01:57:45;4.68;;;1.70;;
25657;SDS011;13517;59.320;18.042;2022-09-01T02:00:15;3.30;;;1.50;;
25657;SDS011;13517;59.320;18.042;2022-09-01T02:02:47;3.22;;;1.63;;
25657;SDS011;13517;59.320;18.042;2022-09-01T02:05:24;3.13;;;1.70;;
25657;SDS011;13517;59.320;18.042;2022-09-01T02:07:52;4.45;;;1.65;;
25657;SDS011;13517;59.320;18.042;2022-09-01T02:10:21;3.15;;;1.52;;
25657;SDS011;13517;59.320;18.042;2022-09-01T02:12:51;3.17;;;1.58;;
25657;SDS011;13517;59.320;18.042;2022-09-01T02:15:17;6.68;;;1.50;;
25657;SDS011;13517;59.320;18.042;2022-09-01T02:17:43;2.83;;;1.35;;
25657;SDS011;13517;59.320;18.042;2022-09-01T02:20:10;2.97;;;1.80;;
25657;SDS011;13517;59.320;18.042;2022-09-01T02:22:39;4.45;;;1.20;;
25657;SDS011;13517;59.320;18.042;2022-09-01T02:25:08;3.58;;;1.60;;
25657;SDS011;13517;59.320;18.042;2022-09-01T02:27:33;2.95;;;1.50;;
25657;SDS011;13517;59.320;18.042;2022-09-01T02:30:00;2.53;;;1.23;;
25657;SDS011;13517;59.320;18.042;2022-09-01T02:32:26;3.33;;;1.10;;
25657;SDS011;13517;59.320;18.042;2022-09-01T02:34:52;5.38;;;1.50;;
25657;SDS011;13517;59.320;18.042;2022-09-01T02:37:25;2.28;;;1.23;;
25657;SDS011;13517;59.320;18.042;2022-09-01T02:39:51;2.72;;;1.20;;
25657;SDS011;13517;59.320;18.042;2022-09-01T02:42:18;4.80;;;1.48;;
25657;SDS011;13517;59.320;18.042;2022-09-01T02:44:55;2.75;;;1.25;;
25657;SDS011;13517;59.320;18.042;2022-09-01T02:47:22;1.60;;;1.05;;
25657;SDS011;13517;59.320;18.042;2022-09-01T02:49:52;2.67;;;1.10;;
25657;SDS011;13517;59.320;18.042;2022-09-01T02:52:18;4.40;;;1.20;;
25657;SDS011;13517;59.320;18.042;2022-09-01T02:54:46;1.67;;;1.20;;
25657;SDS011;13517;59.320;18.042;2022-09-01T02:57:14;3.75;;;1.30;;
25657;SDS011;13517;59.320;18.042;2022-09-01T02:59:40;2.55;;;1.17;;
25657;SDS011;13517;59.320;18.042;2022-09-01T03:02:07;2.78;;;1.17;;
25657;SDS011;13517;59.320;18.042;2022-09-01T03:04:33;1.88;;;1.17;;
25657;SDS011;13517;59.320;18.042;2022-09-01T03:07:02;1.52;;;1.10;;
25657;SDS011;13517;59.320;18.042;2022-09-01T03:09:29;1.60;;;1.48;;
25657;SDS011;13517;59.320;18.042;2022-09-01T03:11:57;1.60;;;0.80;;
25657;SDS011;13517;59.320;18.042;2022-09-01T03:14:22;1.77;;;1.08;;
25657;SDS011;13517;59.320;18.042;2022-09-01T03:16:48;1.42;;;1.02;;
25657;SDS011;13517;59.320;18.042;2022-09-01T03:19:14;1.40;;;1.20;;
25657;SDS011;13517;59.320;18.042;2022-09-01T03:21:41;1.88;;;1.05;;
25657;SDS011;13517;59.320;18.042;2022-09-01T03:24:09;2.33;;;0.95;;
25657;SDS011;13517;59.320;18.042;2022-09-01T03:26:39;1.83;;;1.15;;
25657;SDS011;13517;59.320;18.042;2022-09-01T03:29:05;2.53;;;1.15;;
25657;SDS011;13517;59.320;18.042;2022-09-01T03:31:30;1.73;;;1.02;;
25657;SDS011;13517;59.320;18.042;2022-09-01T03:33:56;3.35;;;1.10;;
25657;SDS011;13517;59.320;18.042;2022-09-01T03:36:23;3.58;;;1.13;;
25657;SDS011;13517;59.320;18.042;2022-09-01T03:38:49;2.10;;;1.35;;
25657;SDS011;13517;59.320;18.042;2022-09-01T03:41:17;1.95;;;1.05;;
25657;SDS011;13517;59.320;18.042;2022-09-01T03:43:45;2.45;;;1.05;;
25657;SDS011;13517;59.320;18.042;2022-09-01T03:46:11;5.07;;;1.40;;
25657;SDS011;13517;59.320;18.042;2022-09-01T03:48:44;3.40;;;1.40;;
25657;SDS011;13517;59.320;18.042;2022-09-01T03:51:11;3.67;;;1.33;;
25657;SDS011;13517;59.320;18.042;2022-09-01T03:53:38;4.15;;;1.02;;
25657;SDS011;13517;59.320;18.042;2022-09-01T03:56:04;2.55;;;1.10;;
25657;SDS011;13517;59.320;18.042;2022-09-01T03:58:31;3.30;;;1.13;;
25657;SDS011;13517;59.320;18.042;2022-09-01T04:00:57;3.25;;;1.95;;
25657;SDS011;13517;59.320;18.042;2022-09-01T04:03:26;6.82;;;1.35;;
25657;SDS011;13517;59.320;18.042;2022-09-01T04:05:56;1.88;;;1.00;;
25657;SDS011;13517;59.320;18.042;2022-09-01T04:08:22;2.05;;;1.25;;
25657;SDS011;13517;59.320;18.042;2022-09-01T04:10:51;1.38;;;0.80;;
25657;SDS011;13517;59.320;18.042;2022-09-01T04:13:22;1.77;;;0.98;;
25657;SDS011;13517;59.320;18.042;2022-09-01T04:15:54;1.58;;;1.10;;
25657;SDS011;13517;59.320;18.042;2022-09-01T04:18:20;1.65;;;1.00;;
25657;SDS011;13517;59.320;18.042;2022-09-01T04:20:48;2.58;;;0.85;;
25657;SDS011;13517;59.320;18.042;2022-09-01T04:25:56;3.88;;;0.95;;
25657;SDS011;13517;59.320;18.042;2022-09-01T04:28:34;1.45;;;1.10;;
25657;SDS011;13517;59.320;18.042;2022-09-01T04:31:06;1.70;;;1.10;;
25657;SDS011;13517;59.320;18.042;2022-09-01T04:33:34;3.08;;;0.90;;
25657;SDS011;13517;59.320;18.042;2022-09-01T04:36:04;2.50;;;1.10;;
25657;SDS011;13517;59.320;18.042;2022-09-01T04:38:31;1.20;;;1.10;;
25657;SDS011;13517;59.320;18.042;2022-09-01T04:41:02;1.98;;;1.17;;
25657;SDS011;13517;59.320;18.042;2022-09-01T04:43:32;2.85;;;1.10;;
25657;SDS011;13517;59.320;18.042;2022-09-01T04:45:58;2.13;;;1.05;;
25657;SDS011;13517;59.320;18.042;2022-09-01T04:48:24;1.70;;;0.85;;
25657;SDS011;13517;59.320;18.042;2022-09-01T04:50:50;3.55;;;0.95;;
25657;SDS011;13517;59.320;18.042;2022-09-01T04:53:17;4.30;;;0.90;;
25657;SDS011;13517;59.320;18.042;2022-09-01T04:55:43;16.65;;;1.50;;
25657;SDS011;13517;59.320;18.042;2022-09-01T04:58:12;2.20;;;1.30;;
25657;SDS011;13517;59.320;18.042;2022-09-01T05:00:42;2.38;;;1.40;;
25657;SDS011;13517;59.320;18.042;2022-09-01T05:03:09;3.75;;;1.25;;
25657;SDS011;13517;59.320;18.042;2022-09-01T05:05:44;1.27;;;1.17;;
25657;SDS011;13517;59.320;18.042;2022-09-01T05:08:17;2.08;;;1.13;;
25657;SDS011;13517;59.320;18.042;2022-09-01T05:10:47;1.55;;;1.08;;
25657;SDS011;13517;59.320;18.042;2022-09-01T05:13:16;2.67;;;1.00;;
25657;SDS011;13517;59.320;18.042;2022-09-01T05:15:43;1.30;;;1.05;;
25657;SDS011;13517;59.320;18.042;2022-09-01T05:18:14;3.40;;;1.08;;
25657;SDS011;13517;59.320;18.042;2022-09-01T05:20:48;2.80;;;1.27;;
25657;SDS011;13517;59.320;18.042;2022-09-01T05:23:14;1.75;;;0.80;;
25657;SDS011;13517;59.320;18.042;2022-09-01T05:25:43;1.20;;;0.88;;
25657;SDS011;13517;59.320;18.042;2022-09-01T05:28:12;2.45;;;1.00;;
25657;SDS011;13517;59.320;18.042;2022-09-01T05:30:38;2.83;;;1.00;;
25657;SDS011;13517;59.320;18.042;2022-09-01T05:33:05;2.38;;;0.90;;
25657;SDS011;13517;59.320;18.042;2022-09-01T05:35:51;1.83;;;1.10;;
25657;SDS011;13517;59.320;18.042;2022-09-01T05:38:19;3.03;;;1.30;;
25657;SDS011;13517;59.320;18.042;2022-09-01T05:40:45;2.47;;;1.17;;
25657;SDS011;13517;59.320;18.042;2022-09-01T05:43:20;4.70;;;1.50;;
25657;SDS011;13517;59.320;18.042;2022-09-01T05:45:46;1.85;;;1.10;;
25657;SDS011;13517;59.320;18.042;2022-09-01T05:48:11;2.60;;;0.90;;
25657;SDS011;13517;59.320;18.042;2022-09-01T05:50:44;1.38;;;1.08;;
25657;SDS011;13517;59.320;18.042;2022-09-01T05:53:11;5.18;;;1.20;;
25657;SDS011;13517;59.320;18.042;2022-09-01T05:55:44;2.70;;;1.10;;
25657;SDS011;13517;59.320;18.042;2022-09-01T05:58:11;5.35;;;1.20;;
25657;SDS011;13517;59.320;18.042;2022-09-01T06:00:42;3.35;;;1.40;;
25657;SDS011;13517;59.320;18.042;2022-09-01T06:03:11;1.85;;;1.00;;
25657;SDS011;13517;59.320;18.042;2022-09-01T06:05:38;2.80;;;1.15;;
25657;SDS011;13517;59.320;18.042;2022-09-01T06:08:04;3.83;;;1.10;;
25657;SDS011;13517;59.320;18.042;2022-09-01T06:10:32;2.50;;;1.33;;
25657;SDS011;13517;59.320;18.042;2022-09-01T06:13:02;1.50;;;1.00;;
25657;SDS011;13517;59.320;18.042;2022-09-01T06:15:30;1.48;;;0.90;;
25657;SDS011;13517;59.320;18.042;2022-09-01T06:17:56;2.28;;;1.05;;
25657;SDS011;13517;59.320;18.042;2022-09-01T06:20:23;6.03;;;1.58;;
25657;SDS011;13517;59.320;18.042;2022-09-01T06:22:49;2.95;;;1.10;;
25657;SDS011;13517;59.320;18.042;2022-09-01T06:25:16;3.85;;;1.40;;
25657;SDS011;13517;59.320;18.042;2022-09-01T06:27:42;2.45;;;1.10;;
25657;SDS011;13517;59.320;18.042;2022-09-01T06:30:09;2.47;;;1.10;;
25657;SDS011;13517;59.320;18.042;2022-09-01T06:32:43;2.60;;;1.23;;
25657;SDS011;13517;59.320;18.042;2022-09-01T06:35:12;1.52;;;1.08;;
25657;SDS011;13517;59.320;18.042;2022-09-01T06:37:40;2.92;;;1.05;;
25657;SDS011;13517;59.320;18.042;2022-09-01T06:40:08;1.50;;;0.90;;
25657;SDS011;13517;59.320;18.042;2022-09-01T06:42:42;3.05;;;1.00;;
25657;SDS011;13517;59.320;18.042;2022-09-01T06:45:09;2.92;;;1.20;;
25657;SDS011;13517;59.320;18.042;2022-09-01T06:47:35;2.22;;;1.10;;
25657;SDS011;13517;59.320;18.042;2022-09-01T06:50:01;1.73;;;1.45;;
25657;SDS011;13517;59.320;18.042;2022-09-01T06:52:27;4.30;;;1.20;;
25657;SDS011;13517;59.320;18.042;2022-09-01T06:54:53;1.70;;;1.00;;
25657;SDS011;13517;59.320;18.042;2022-09-01T06:57:18;4.03;;;1.10;;
25657;SDS011;13517;59.320;18.042;2022-09-01T06:59:46;1.13;;;0.95;;
25657;SDS011;13517;59.320;18.042;2022-09-01T07:02:13;1.85;;;0.85;;
25657;SDS011;13517;59.320;18.042;2022-09-01T07:04:43;2.35;;;0.93;;
25657;SDS011;13517;59.320;18.042;2022-09-01T07:07:10;5.78;;;1.20;;
25657;SDS011;13517;59.320;18.042;2022-09-01T07:09:37;2.42;;;1.10;;
25657;SDS011;13517;59.320;18.042;2022-09-01T07:12:04;1.00;;;0.90;;
25657;SDS011;13517;59.320;18.042;2022-09-01T07:14:30;1.60;;;1.17;;
25657;SDS011;13517;59.320;18.042;2022-09-01T07:16:55;4.60;;;1.20;;
25657;SDS011;13517;59.320;18.042;2022-09-01T07:19:22;6.55;;;0.90;;
25657;SDS011;13517;59.320;18.042;2022-09-01T07:21:50;2.47;;;0.90;;
25657;SDS011;13517;59.320;18.042;2022-09-01T07:24:16;3.85;;;1.05;;
25657;SDS011;13517;59.320;18.042;2022-09-01T07:26:42;4.75;;;0.80;;
25657;SDS011;13517;59.320;18.042;2022-09-01T07:29:15;2.08;;;0.98;;
25657;SDS011;13517;59.320;18.042;2022-09-01T07:31:41;1.58;;;0.90;;
25657;SDS011;13517;59.320;18.042;2022-09-01T07:34:08;4.57;;;1.83;;
25657;SDS011;13517;59.320;18.042;2022-09-01T07:36:37;3.05;;;0.85;;
25657;SDS011;13517;59.320;18.042;2022-09-01T07:39:09;2.20;;;0.90;;
25657;SDS011;13517;59.320;18.042;2022-09-01T07:41:38;1.00;;;0.80;;
25657;SDS011;13517;59.320;18.042;2022-09-01T07:44:06;1.25;;;0.85;;
25657;SDS011;13517;59.320;18.042;2022-09-01T07:46:34;5.50;;;1.55;;
25657;SDS011;13517;59.320;18.042;2022-09-01T07:49:00;1.65;;;0.70;;
25657;SDS011;13517;59.320;18.042;2022-09-01T07:51:26;2.75;;;1.08;;
25657;SDS011;13517;59.320;18.042;2022-09-01T07:53:53;3.30;;;0.73;;
25657;SDS011;13517;59.320;18.042;2022-09-01T07:56:20;2.13;;;0.77;;
25657;SDS011;13517;59.320;18.042;2022-09-01T07:58:47;2.50;;;0.80;;
25657;SDS011;13517;59.320;18.042;2022-09-01T08:01:18;1.60;;;0.80;;
25657;SDS011;13517;59.320;18.042;2022-09-01T08:03:46;2.92;;;1.15;;
25657;SDS011;13517;59.320;18.042;2022-09-01T08:06:15;1.42;;;0.75;;
25657;SDS011;13517;59.320;18.042;2022-09-01T08:08:43;2.33;;;0.52;;
25657;SDS011;13517;59.320;18.042;2022-09-01T08:11:09;1.65;;;0.82;;
25657;SDS011;13517;59.320;18.042;2022-09-01T08:13:40;0.70;;;0.60;;
25657;SDS011;13517;59.320;18.042;2022-09-01T08:16:06;4.15;;;0.77;;
25657;SDS011;13517;59.320;18.042;2022-09-01T08:18:32;1.63;;;0.82;;
25657;SDS011;13517;59.320;18.042;2022-09-01T08:20:58;1.33;;;0.77;;
25657;SDS011;13517;59.320;18.042;2022-09-01T08:23:23;1.05;;;0.75;;
25657;SDS011;13517;59.320;18.042;2022-09-01T08:25:51;1.90;;;0.90;;
25657;SDS011;13517;59.320;18.042;2022-09-01T08:28:18;0.90;;;0.90;;
25657;SDS011;13517;59.320;18.042;2022-09-01T08:30:44;3.22;;;1.17;;
25657;SDS011;13517;59.320;18.042;2022-09-01T08:33:10;2.55;;;0.80;;
25657;SDS011;13517;59.320;18.042;2022-09-01T08:35:37;3.92;;;0.88;;
25657;SDS011;13517;59.320;18.042;2022-09-01T08:38:04;1.45;;;0.80;;
25657;SDS011;13517;59.320;18.042;2022-09-01T08:40:29;2.40;;;1.02;;
25657;SDS011;13517;59.320;18.042;2022-09-01T08:45:52;1.20;;;0.50;;
25657;SDS011;13517;59.320;18.042;2022-09-01T08:48:21;3.47;;;0.80;;
25657;SDS011;13517;59.320;18.042;2022-09-01T08:50:58;0.50;;;0.50;;
25657;SDS011;13517;59.320;18.042;2022-09-01T08:53:34;1.40;;;0.70;;
25657;SDS011;13517;59.320;18.042;2022-09-01T08:56:05;2.53;;;0.90;;
25657;SDS011;13517;59.320;18.042;2022-09-01T08:58:35;6.60;;;1.00;;
25657;SDS011;13517;59.320;18.042;2022-09-01T09:01:02;3.38;;;1.17;;
25657;SDS011;13517;59.320;18.042;2022-09-01T09:04:03;1.90;;;1.17;;
25657;SDS011;13517;59.320;18.042;2022-09-01T09:06:37;1.40;;;0.68;;
25657;SDS011;13517;59.320;18.042;2022-09-01T09:09:13;1.38;;;0.90;;
25657;SDS011;13517;59.320;18.042;2022-09-01T09:11:59;1.63;;;0.90;;
25657;SDS011;13517;59.320;18.042;2022-09-01T09:17:11;1.77;;;0.80;;
25657;SDS011;13517;59.320;18.042;2022-09-01T09:19:40;1.40;;;0.77;;
25657;SDS011;13517;59.320;18.042;2022-09-01T09:22:08;3.67;;;0.90;;
25657;SDS011;13517;59.320;18.042;2022-09-01T09:27:16;2.33;;;1.13;;
25657;SDS011;13517;59.320;18.042;2022-09-01T09:29:54;0.93;;;0.77;;
25657;SDS011;13517;59.320;18.042;2022-09-01T09:32:22;1.10;;;0.70;;
25657;SDS011;13517;59.320;18.042;2022-09-01T09:34:50;2.58;;;1.08;;
25657;SDS011;13517;59.320;18.042;2022-09-01T09:37:26;2.47;;;0.65;;
25657;SDS011;13517;59.320;18.042;2022-09-01T09:40:07;2.83;;;0.68;;
25657;SDS011;13517;59.320;18.042;2022-09-01T09:42:37;5.50;;;0.80;;
25657;SDS011;13517;59.320;18.042;2022-09-01T09:45:26;1.48;;;1.00;;
25657;SDS011;13517;59.320;18.042;2022-09-01T09:47:53;0.88;;;0.70;;
25657;SDS011;13517;59.320;18.042;2022-09-01T09:50:21;2.65;;;0.82;;
25657;SDS011;13517;59.320;18.042;2022-09-01T09:52:47;2.40;;;0.75;;
25657;SDS011;13517;59.320;18.042;2022-09-01T09:55:21;3.38;;;0.80;;
25657;SDS011;13517;59.320;18.042;2022-09-01T09:57:50;1.23;;;0.70;;
25657;SDS011;13517;59.320;18.042;2022-09-01T10:00:25;2.65;;;0.80;;
25657;SDS011;13517;59.320;18.042;2022-09-01T10:03:05;0.57;;;0.50;;
25657;SDS011;13517;59.320;18.042;2022-09-01T10:05:42;1.45;;;0.70;;
25657;SDS011;13517;59.320;18.042;2022-09-01T10:08:13;2.35;;;0.73;;
25657;SDS011;13517;59.320;18.042;2022-09-01T10:11:02;2.13;;;0.75;;
25657;SDS011;13517;59.320;18.042;2022-09-01T10:13:28;1.45;;;0.80;;
25657;SDS011;13517;59.320;18.042;2022-09-01T10:15:56;1.02;;;0.57;;
25657;SDS011;13517;59.320;18.042;2022-09-01T10:18:44;2.13;;;0.70;;
25657;SDS011;13517;59.320;18.042;2022-09-01T10:21:12;1.25;;;1.00;;
25657;SDS011;13517;59.320;18.042;2022-09-01T10:23:41;6.43;;;1.27;;
25657;SDS011;13517;59.320;18.042;2022-09-01T10:28:56;1.05;;;0.65;;
25657;SDS011;13517;59.320;18.042;2022-09-01T10:31:24;1.80;;;0.93;;
25657;SDS011;13517;59.320;18.042;2022-09-01T10:33:52;2.20;;;0.90;;
25657;SDS011;13517;59.320;18.042;2022-09-01T10:36:18;1.70;;;1.00;;
25657;SDS011;13517;59.320;18.042;2022-09-01T10:38:45;1.65;;;0.77;;
25657;SDS011;13517;59.320;18.042;2022-09-01T10:41:41;2.60;;;0.70;;
25657;SDS011;13517;59.320;18.042;2022-09-01T10:44:09;1.15;;;0.77;;
25657;SDS011;13517;59.320;18.042;2022-09-01T10:46:42;1.10;;;0.77;;
25657;SDS011;13517;59.320;18.042;2022-09-01T10:49:17;3.95;;;0.90;;
25657;SDS011;13517;59.320;18.042;2022-09-01T10:51:52;1.70;;;0.70;;
25657;SDS011;13517;59.320;18.042;2022-09-01T10:59:42;2.42;;;1.23;;
25657;SDS011;13517;59.320;18.042;2022-09-01T11:02:13;2.40;;;0.82;;
25657;SDS011;13517;59.320;18.042;2022-09-01T11:09:46;4.30;;;1.00;;
25657;SDS011;13517;59.320;18.042;2022-09-01T11:15:05;2.42;;;0.50;;
25657;SDS011;13517;59.320;18.042;2022-09-01T11:20:30;0.82;;;0.40;;
25657;SDS011;13517;59.320;18.042;2022-09-01T11:23:05;1.70;;;0.40;;
25657;SDS011;13517;59.320;18.042;2022-09-01T11:25:42;1.20;;;0.47;;
25657;SDS011;13517;59.320;18.042;2022-09-01T11:28:10;1.20;;;0.57;;
25657;SDS011;13517;59.320;18.042;2022-09-01T11:38:55;0.40;;;0.40;;
25657;SDS011;13517;59.320;18.042;2022-09-01T11:44:09;0.30;;;0.30;;
25657;SDS011;13517;59.320;18.042;2022-09-01T11:46:38;0.40;;;0.40;;
25657;SDS011;13517;59.320;18.042;2022-09-01T11:49:07;1.05;;;0.50;;
25657;SDS011;13517;59.320;18.042;2022-09-01T11:54:17;2.67;;;0.40;;
25657;SDS011;13517;59.320;18.042;2022-09-01T11:56:42;0.63;;;0.47;;
25657;SDS011;13517;59.320;18.042;2022-09-01T11:59:08;0.43;;;0.30;;
25657;SDS011;13517;59.320;18.042;2022-09-01T12:01:37;0.50;;;0.50;;
25657;SDS011;13517;59.320;18.042;2022-09-01T12:06:55;0.90;;;0.40;;
25657;SDS011;13517;59.320;18.042;2022-09-01T12:09:34;0.70;;;0.50;;
25657;SDS011;13517;59.320;18.042;2022-09-01T12:12:07;0.45;;;0.45;;
25657;SDS011;13517;59.320;18.042;2022-09-01T12:14:57;0.30;;;0.30;;
25657;SDS011;13517;59.320;18.042;2022-09-01T12:17:24;0.50;;;0.30;;
25657;SDS011;13517;59.320;18.042;2022-09-01T12:19:50;2.30;;;0.50;;
25657;SDS011;13517;59.320;18.042;2022-09-01T12:22:16;1.58;;;0.80;;
25657;SDS011;13517;59.320;18.042;2022-09-01T12:24:48;0.63;;;0.20;;
25657;SDS011;13517;59.320;18.042;2022-09-01T12:27:15;0.40;;;0.40;;
25657;SDS011;13517;59.320;18.042;2022-09-01T12:29:41;0.30;;;0.30;;
25657;SDS011;13517;59.320;18.042;2022-09-01T12:32:07;0.43;;;0.30;;
25657;SDS011;13517;59.320;18.042;2022-09-01T12:34:37;0.43;;;0.40;;
25657;SDS011;13517;59.320;18.042;2022-09-01T12:44:51;0.40;;;0.40;;
25657;SDS011;13517;59.320;18.042;2022-09-01T12:52:52;0.73;;;0.50;;
25657;SDS011;13517;59.320;18.042;2022-09-01T12:55:20;1.25;;;0.60;;
25657;SDS011;13517;59.320;18.042;2022-09-01T12:57:49;1.88;;;0.88;;
25657;SDS011;13517;59.320;18.042;2022-09-01T13:00:24;2.25;;;0.50;;
25657;SDS011;13517;59.320;18.042;2022-09-01T13:05:23;1.77;;;0.38;;
25657;SDS011;13517;59.320;18.042;2022-09-01T13:07:52;0.50;;;0.50;;
25657;SDS011;13517;59.320;18.042;2022-09-01T13:10:25;0.88;;;0.50;;
25657;SDS011;13517;59.320;18.042;2022-09-01T13:12:54;1.35;;;0.52;;
25657;SDS011;13517;59.320;18.042;2022-09-01T13:15:22;1.58;;;0.43;;
25657;SDS011;13517;59.320;18.042;2022-09-01T13:17:49;0.60;;;0.50;;
25657;SDS011;13517;59.320;18.042;2022-09-01T13:20:15;2.15;;;0.50;;
25657;SDS011;13517;59.320;18.042;2022-09-01T13:22:40;0.60;;;0.50;;
25657;SDS011;13517;59.320;18.042;2022-09-01T13:25:07;1.20;;;0.63;;
25657;SDS011;13517;59.320;18.042;2022-09-01T13:27:34;0.90;;;0.57;;
25657;SDS011;13517;59.320;18.042;2022-09-01T13:30:02;1.77;;;0.43;;
25657;SDS011;13517;59.320;18.042;2022-09-01T13:32:30;0.88;;;0.70;;
25657;SDS011;13517;59.320;18.042;2022-09-01T13:34:55;3.22;;;0.60;;
25657;SDS011;13517;59.320;18.042;2022-09-01T13:37:20;0.60;;;0.40;;
25657;SDS011;13517;59.320;18.042;2022-09-01T13:39:47;1.85;;;0.50;;
25657;SDS011;13517;59.320;18.042;2022-09-01T13:42:13;0.98;;;0.50;;
25657;SDS011;13517;59.320;18.042;2022-09-01T13:44:39;1.63;;;0.82;;
25657;SDS011;13517;59.320;18.042;2022-09-01T13:47:04;1.65;;;0.90;;
25657;SDS011;13517;59.320;18.042;2022-09-01T13:49:30;0.65;;;0.45;;
25657;SDS011;13517;59.320;18.042;2022-09-01T13:51:55;0.40;;;0.40;;
25657;SDS011;13517;59.320;18.042;2022-09-01T13:54:21;1.25;;;0.70;;
25657;SDS011;13517;59.320;18.042;2022-09-01T13:56:46;2.78;;;0.57;;
25657;SDS011;13517;59.320;18.042;2022-09-01T13:59:11;1.20;;;0.60;;
25657;SDS011;13517;59.320;18.042;2022-09-01T14:01:37;3.65;;;0.70;;
25657;SDS011;13517;59.320;18.042;2022-09-01T14:04:05;3.97;;;0.73;;
25657;SDS011;13517;59.320;18.042;2022-09-01T14:06:30;2.22;;;0.70;;
25657;SDS011;13517;59.320;18.042;2022-09-01T14:08:56;1.15;;;0.68;;
25657;SDS011;13517;59.320;18.042;2022-09-01T14:11:23;1.80;;;0.55;;
25657;SDS011;13517;59.320;18.042;2022-09-01T14:13:49;2.38;;;0.63;;
25657;SDS011;13517;59.320;18.042;2022-09-01T14:16:14;1.48;;;0.60;;
25657;SDS011;13517;59.320;18.042;2022-09-01T14:18:40;2.72;;;0.73;;
25657;SDS011;13517;59.320;18.042;2022-09-01T14:21:10;4.35;;;1.10;;
25657;SDS011;13517;59.320;18.042;2022-09-01T14:23:39;1.63;;;0.82;;
25657;SDS011;13517;59.320;18.042;2022-09-01T14:26:07;4.28;;;0.82;;
25657;SDS011;13517;59.320;18.042;2022-09-01T14:28:35;1.50;;;0.80;;
25657;SDS011;13517;59.320;18.042;2022-09-01T14:31:05;2.13;;;1.27;;
25657;SDS011;13517;59.320;18.042;2022-09-01T14:33:35;4.28;;;1.08;;
25657;SDS011;13517;59.320;18.042;2022-09-01T14:36:01;2.85;;;0.82;;
25657;SDS011;13517;59.320;18.042;2022-09-01T14:38:28;2.00;;;1.27;;
25657;SDS011;13517;59.320;18.042;2022-09-01T14:40:54;1.13;;;0.73;;
25657;SDS011;13517;59.320;18.042;2022-09-01T14:43:19;1.95;;;0.70;;
25657;SDS011;13517;59.320;18.042;2022-09-01T14:45:45;3.15;;;1.23;;
25657;SDS011;13517;59.320;18.042;2022-09-01T14:48:12;1.27;;;0.63;;
25657;SDS011;13517;59.320;18.042;2022-09-01T14:50:42;0.40;;;0.40;;
25657;SDS011;13517;59.320;18.042;2022-09-01T14:53:11;1.33;;;1.00;;
25657;SDS011;13517;59.320;18.042;2022-09-01T14:55:37;1.90;;;0.70;;
25657;SDS011;13517;59.320;18.042;2022-09-01T14:58:03;1.60;;;1.08;;
25657;SDS011;13517;59.320;18.042;2022-09-01T15:00:29;2.13;;;1.10;;
25657;SDS011;13517;59.320;18.042;2022-09-01T15:02:57;2.58;;;0.98;;
25657;SDS011;13517;59.320;18.042;2022-09-01T15:05:23;0.90;;;0.60;;
25657;SDS011;13517;59.320;18.042;2022-09-01T15:07:49;1.77;;;0.57;;
25657;SDS011;13517;59.320;18.042;2022-09-01T15:10:16;1.10;;;0.60;;
25657;SDS011;13517;59.320;18.042;2022-09-01T15:12:45;2.70;;;0.70;;
25657;SDS011;13517;59.320;18.042;2022-09-01T15:15:11;2.95;;;0.98;;
25657;SDS011;13517;59.320;18.042;2022-09-01T15:17:37;1.58;;;0.80;;
25657;SDS011;13517;59.320;18.042;2022-09-01T15:20:02;2.65;;;0.50;;
25657;SDS011;13517;59.320;18.042;2022-09-01T15:22:47;1.50;;;0.77;;
25657;SDS011;13517;59.320;18.042;2022-09-01T15:25:14;0.73;;;0.70;;
25657;SDS011;13517;59.320;18.042;2022-09-01T15:27:40;2.67;;;0.85;;
25657;SDS011;13517;59.320;18.042;2022-09-01T15:30:05;1.25;;;0.40;;
25657;SDS011;13517;59.320;18.042;2022-09-01T15:32:38;0.50;;;0.45;;
25657;SDS011;13517;59.320;18.042;2022-09-01T15:35:05;0.60;;;0.60;;
25657;SDS011;13517;59.320;18.042;2022-09-01T15:37:31;0.63;;;0.50;;
25657;SDS011;13517;59.320;18.042;2022-09-01T15:39:56;2.30;;;0.73;;
25657;SDS011;13517;59.320;18.042;2022-09-01T15:42:22;0.80;;;0.50;;
25657;SDS011;13517;59.320;18.042;2022-09-01T15:44:48;0.60;;;0.60;;
25657;SDS011;13517;59.320;18.042;2022-09-01T15:47:13;3.15;;;0.68;;
25657;SDS011;13517;59.320;18.042;2022-09-01T15:49:39;1.75;;;0.68;;